Pueblo, CO

10:07 PM MDT on July 04, 2015 (GMT -0600)
Belmont - Boomer Weather | | Change Station
CLOSE
Current Station
Personal Weather Station
Location: Pueblo, CO
Elevation: 4869 ft
Nearby Weather Stations
Active Advisory: Flood Warning Active Notice: Public Information Statement

Elev 4869 ft 38.30 °N, 104.58 °W | Updated 32 seconds ago

Clear
Clear
77.2 °F
Feels Like 78 °F
N
4.0
Wind Variable Wind from WSW
Gusts 11.0 mph

Today
High -- | Low -- °F
--% Chance of Precip.
Yesterday
High -- | Low -- °F
Precip. -- in
5:39 AM 8:25 PM
Waning Gibbous, 88% visible
Pressure 29.75 in
Visibility 10.0 miles
Clouds Clear
Heat Index 78 °F
Dew Point 52 °F
Humidity 41%
Rainfall 0.00 in
Snow Depth Not available.
UV 0.0 out of 12
Pollen 5.70 out of 12
Air Quality Not available.
Flu Activity Not available.
METAR KPUB 050353Z AUTO 30007KT 10SM CLR 26/11 A2997 RMK AO2 SLP074 T02560111

More Conditions Fewer Conditions

Pressure 29.75 in
Visibility 10.0 miles
Clouds Clear
Heat Index 78 °F
Dew Point 52 °F
Humidity 41%
Rainfall 0.00 in
Snow Depth Not available.
UV 0.0 out of 12
Pollen 5.70 out of 12
Air Quality Not available.
Flu Activity Not available.
METAR KPUB 050353Z AUTO 30007KT 10SM CLR 26/11 A2997 RMK AO2 SLP074 T02560111

More Conditions Fewer Conditions

10-Day Weather Forecast

×

Almanac

Astronomy

Jul. 04, 2015 Rise Set
Actual Time
Civil Twilight
Nautical Twilight
Astronomical Twilight
Moon
Length of Visible Light
Length of Day
Tomorrow will be .
, % of the Moon is Illuminated

Today's Extremes

State Highs State Lows

Community

WunderPhotos

Upload Photos

1,835,196 photos uploaded!

WunderBlogs® & News

Nearby

Air Quality

  Air Quality AQ Index Pollutant
Not available.

Snow Depth

Station Depth Elevation

Earthquake Activity

City Distance Mag. Time & Date
Minimum magnitude displayed is 2.5.

Coastal Water Temperatures

Place Temperature

Stations

Nearby Weather Stations

Station Location Temp. Windchill Dew Point Humidity Wind Precip. Elev Updated Type
                   
Flood Warning
Statement as of 6:56 PM MDT on July 04, 2015

The Flood Warning continues for
the Arkansas River near Avondale.
* Until Sunday afternoon... or until the warning is cancelled.
* At 6:15 PM Saturday the stage was 6.6 feet.
* Flood stage is 7.0 feet.
* Forecast... the river is expected to rise to near flood stage after
midnight tonight.
* Impact... at 7.0 feet... minor lowland flooding occurs near Avondale.


Lat... Lon 3829 10441 3829 10434 3827 10425 3820 10425
      3822 10434 3822 10441